Time;durP1;ratioP1;P1;durP2;ratioP2;P2;SDS_P1;SDS_P2;PMS_P1;PMS_P2;Temp;Humidity;BMP_temperature;BMP_pressure;BME280_temperature;BME280_humidity;BME280_pressure;Samples;Min_cycle;Max_cycle;Signal;HPM_P1;HPM_P2
2022/06/04 00:00:50;;;;;;;12.27;7.90;;;10.90;99.90;;;;;;4984816;28;20053;-74
2022/06/04 00:03:17;;;;;;;11.45;7.43;;;10.90;99.90;;;;;;4964375;28;20046;-74
2022/06/04 00:05:48;;;;;;;13.00;8.63;;;10.90;99.90;;;;;;4985687;28;20157;-74
2022/06/04 00:08:14;;;;;;;11.77;8.40;;;10.90;99.90;;;;;;4969367;28;20046;-75
2022/06/04 00:16:17;;;;;;;13.55;8.57;;;10.80;99.90;;;;;;4984854;28;20046;-75
2022/06/04 00:18:43;;;;;;;12.88;8.40;;;10.80;99.90;;;;;;4939639;28;20148;-75
2022/06/04 00:21:11;;;;;;;13.35;8.00;;;10.70;99.90;;;;;;4954947;28;20042;-75
2022/06/04 00:23:40;;;;;;;13.30;8.60;;;10.70;99.90;;;;;;4986744;28;20052;-74
2022/06/04 00:26:09;;;;;;;14.73;8.93;;;10.70;99.90;;;;;;4973028;28;20164;-75
2022/06/04 00:28:36;;;;;;;15.27;8.85;;;10.70;99.90;;;;;;4990275;28;20099;-75
2022/06/04 00:31:02;;;;;;;12.90;7.90;;;10.60;99.90;;;;;;4991327;28;20095;-74
2022/06/04 00:33:31;;;;;;;12.23;8.30;;;10.60;99.90;;;;;;4990171;28;20037;-75
2022/06/04 00:35:58;;;;;;;13.77;8.40;;;10.60;99.90;;;;;;4990251;28;20072;-75
2022/06/04 00:38:27;;;;;;;15.98;8.45;;;10.50;99.90;;;;;;4988050;28;20451;-74
2022/06/04 00:41:17;;;;;;;13.18;8.55;;;10.50;99.90;;;;;;4973367;28;20488;-75
2022/06/04 00:44:24;;;;;;;15.48;8.23;;;10.50;99.90;;;;;;4996481;28;20572;-75
2022/06/04 00:47:13;;;;;;;16.92;8.48;;;10.50;99.90;;;;;;4967168;28;20042;-75
2022/06/04 00:49:39;;;;;;;14.90;8.43;;;10.50;99.90;;;;;;4973265;28;20108;-75
2022/06/04 00:52:10;;;;;;;20.00;8.82;;;10.40;99.90;;;;;;4972729;28;20045;-75
2022/06/04 00:54:36;;;;;;;14.00;8.32;;;10.50;99.90;;;;;;5004760;28;20045;-75
2022/06/04 00:57:26;;;;;;;16.23;8.70;;;10.40;99.90;;;;;;4988836;28;20034;-75
2022/06/04 01:00:17;;;;;;;14.68;8.75;;;10.40;99.90;;;;;;4971970;28;20044;-75
2022/06/04 01:03:04;;;;;;;13.40;8.70;;;10.40;99.90;;;;;;4988476;28;20518;-75
2022/06/04 01:05:34;;;;;;;11.95;8.80;;;10.30;99.90;;;;;;4988105;28;20104;-75
2022/06/04 01:08:41;;;;;;;15.65;8.68;;;10.30;99.90;;;;;;4988095;28;20985;-76
2022/06/04 01:11:26;;;;;;;18.83;8.48;;;10.30;99.90;;;;;;4987735;28;20037;-75
2022/06/04 01:14:25;;;;;;;21.75;9.13;;;10.30;99.90;;;;;;4985643;28;20041;-75
2022/06/04 01:17:03;;;;;;;15.75;9.13;;;10.30;99.90;;;;;;4990310;28;20065;-75
2022/06/04 01:19:41;;;;;;;15.40;8.68;;;10.30;99.90;;;;;;4990343;28;20124;-74
2022/06/04 01:22:29;;;;;;;15.90;8.95;;;10.30;99.90;;;;;;4986441;28;20495;-75
2022/06/04 01:25:23;;;;;;;17.58;9.15;;;10.20;99.90;;;;;;4973961;28;20098;-75
2022/06/04 01:27:58;;;;;;;16.33;9.18;;;10.30;99.90;;;;;;4986719;28;20025;-75
2022/06/04 01:30:41;;;;;;;21.15;10.07;;;10.20;99.90;;;;;;4987218;28;20034;-75
2022/06/04 01:33:29;;;;;;;17.75;10.02;;;10.20;99.90;;;;;;4986196;28;20081;-75
2022/06/04 01:36:06;;;;;;;19.98;9.20;;;10.20;99.90;;;;;;4985034;28;20106;-74
2022/06/04 01:38:43;;;;;;;18.63;9.82;;;10.20;99.90;;;;;;4972504;28;20069;-75
2022/06/04 01:41:22;;;;;;;12.48;9.02;;;10.10;99.90;;;;;;4972144;28;20057;-75
2022/06/04 01:44:19;;;;;;;14.93;9.02;;;10.10;99.90;;;;;;4988810;28;20399;-75
2022/06/04 01:46:51;;;;;;;14.43;9.75;;;10.10;99.90;;;;;;4986534;28;20470;-75
2022/06/04 01:49:31;;;;;;;17.15;10.27;;;10.10;99.90;;;;;;4962991;28;20076;-75
2022/06/04 01:52:01;;;;;;;15.77;9.55;;;10.10;99.90;;;;;;4984960;28;21295;-75
2022/06/04 01:54:36;;;;;;;17.83;9.20;;;10.10;99.90;;;;;;4985826;28;20496;-74
2022/06/04 01:57:11;;;;;;;18.55;9.32;;;10.00;99.90;;;;;;4989654;28;20033;-75
2022/06/04 01:59:43;;;;;;;15.18;9.45;;;10.00;99.90;;;;;;4987962;28;21243;-75
2022/06/04 02:02:13;;;;;;;18.92;10.13;;;10.00;99.90;;;;;;4988321;28;20088;-75
2022/06/04 02:04:44;;;;;;;16.23;10.27;;;10.00;99.90;;;;;;4985627;28;20130;-75
2022/06/04 02:07:42;;;;;;;19.05;10.00;;;10.00;99.90;;;;;;4988054;28;20108;-75
2022/06/04 02:10:16;;;;;;;16.02;9.18;;;10.00;99.90;;;;;;4967911;28;20046;-75
2022/06/04 02:12:44;;;;;;;18.00;9.85;;;10.00;99.90;;;;;;4988643;28;20108;-75
2022/06/04 02:15:16;;;;;;;17.65;9.07;;;9.90;99.90;;;;;;4986616;28;20131;-75
2022/06/04 02:17:53;;;;;;;19.63;10.00;;;9.90;99.90;;;;;;4971081;28;20063;-75
2022/06/04 02:20:27;;;;;;;16.40;9.30;;;9.90;99.90;;;;;;4984327;28;20396;-75
2022/06/04 02:22:54;;;;;;;19.45;10.35;;;9.90;99.90;;;;;;4985616;28;20495;-75
2022/06/04 02:25:21;;;;;;;15.85;9.93;;;9.90;99.90;;;;;;4986371;28;20041;-75
2022/06/04 02:27:49;;;;;;;20.58;10.30;;;9.90;99.90;;;;;;4971226;28;20286;-75
2022/06/04 02:30:16;;;;;;;18.42;9.85;;;9.80;99.90;;;;;;4988025;28;20046;-75
2022/06/04 02:32:54;;;;;;;16.10;10.30;;;9.80;99.90;;;;;;4970291;28;20383;-75
2022/06/04 02:35:27;;;;;;;18.30;10.07;;;9.80;99.90;;;;;;4971414;28;21719;-75
2022/06/04 02:38:04;;;;;;;22.33;10.55;;;9.80;99.90;;;;;;4987832;28;20426;-75
2022/06/04 02:40:39;;;;;;;16.00;9.63;;;9.80;99.90;;;;;;4970044;28;20069;-75
2022/06/04 02:43:20;;;;;;;21.45;10.70;;;9.70;99.90;;;;;;4987987;28;20096;-75
2022/06/04 02:46:08;;;;;;;18.52;10.45;;;9.70;99.90;;;;;;4970579;28;20566;-75
2022/06/04 02:49:03;;;;;;;20.40;10.43;;;9.60;99.90;;;;;;4983676;28;20044;-75
2022/06/04 02:51:37;;;;;;;21.60;10.10;;;9.60;99.90;;;;;;4949181;28;20045;-74
2022/06/04 02:54:08;;;;;;;16.83;10.55;;;9.60;99.90;;;;;;4985542;28;20038;-75
2022/06/04 02:56:38;;;;;;;20.80;10.48;;;9.60;99.90;;;;;;4988430;28;20050;-75
2022/06/04 02:59:07;;;;;;;21.50;10.32;;;9.60;99.90;;;;;;4986178;28;20053;-75
2022/06/04 03:01:39;;;;;;;20.00;10.75;;;9.60;99.90;;;;;;4986723;28;20499;-75
2022/06/04 03:04:06;;;;;;;16.83;10.52;;;9.60;99.90;;;;;;4988996;28;20053;-75
2022/06/04 03:06:35;;;;;;;19.45;10.60;;;9.60;99.90;;;;;;4988233;28;20045;-75
2022/06/04 03:09:04;;;;;;;21.83;10.60;;;9.60;99.90;;;;;;4969394;28;20038;-75
2022/06/04 03:11:30;;;;;;;18.10;9.90;;;9.50;99.90;;;;;;4985393;28;20034;-74
2022/06/04 03:13:55;;;;;;;18.70;10.15;;;9.50;99.90;;;;;;4984440;28;20073;-75
2022/06/04 03:16:21;;;;;;;18.13;9.85;;;9.50;99.90;;;;;;4985203;28;20073;-75
2022/06/04 03:18:47;;;;;;;22.20;11.20;;;9.50;99.90;;;;;;5001505;28;20092;-75
2022/06/04 03:21:13;;;;;;;20.17;11.10;;;9.50;99.90;;;;;;4956501;28;20125;-75
2022/06/04 03:23:39;;;;;;;17.77;11.18;;;9.50;99.90;;;;;;4969995;28;20088;-74
2022/06/04 03:26:05;;;;;;;28.38;11.60;;;9.50;99.90;;;;;;4971985;28;20407;-75
2022/06/04 03:28:31;;;;;;;19.08;10.40;;;9.50;99.90;;;;;;4973126;28;20041;-75
2022/06/04 03:30:57;;;;;;;16.13;10.18;;;9.40;99.90;;;;;;4984317;28;20531;-74
2022/06/04 03:33:23;;;;;;;22.00;11.30;;;9.40;99.90;;;;;;4956465;28;20073;-74
2022/06/04 03:35:49;;;;;;;20.05;10.48;;;9.40;99.90;;;;;;4988955;28;20447;-75
2022/06/04 03:38:15;;;;;;;23.95;10.38;;;9.40;99.90;;;;;;4953680;28;20096;-75
2022/06/04 03:40:41;;;;;;;20.08;10.05;;;9.40;99.90;;;;;;4971485;28;20046;-75
2022/06/04 03:43:07;;;;;;;16.73;9.70;;;9.40;99.90;;;;;;4970135;28;20414;-75
2022/06/04 03:45:33;;;;;;;21.33;10.10;;;9.40;99.90;;;;;;4987952;28;20134;-75
2022/06/04 03:47:59;;;;;;;16.05;10.75;;;9.40;99.90;;;;;;4967670;28;20033;-75
2022/06/04 03:50:25;;;;;;;16.70;9.68;;;9.50;99.90;;;;;;4971034;28;20030;-75
2022/06/04 03:52:51;;;;;;;16.77;10.45;;;9.50;99.90;;;;;;4972642;28;20042;-75
2022/06/04 03:55:18;;;;;;;20.27;10.15;;;9.50;99.90;;;;;;4968573;28;20381;-75
2022/06/04 03:57:49;;;;;;;16.92;10.05;;;9.50;99.90;;;;;;4987741;28;20045;-75
2022/06/04 04:00:28;;;;;;;19.27;9.10;;;9.50;99.90;;;;;;4991430;28;20033;-75
2022/06/04 04:03:06;;;;;;;14.43;9.80;;;9.50;99.90;;;;;;4990410;28;20041;-74
2022/06/04 04:05:38;;;;;;;19.38;10.55;;;9.50;99.90;;;;;;4991133;28;20092;-76
2022/06/04 04:08:06;;;;;;;;;;;9.60;99.90;;;;;;4981271;28;20253;-75
2022/06/04 04:10:32;;;;;;;19.10;9.68;;;9.60;99.90;;;;;;4980371;28;20012;-75
2022/06/04 04:12:59;;;;;;;15.95;10.50;;;9.60;99.90;;;;;;4969094;28;20038;-75
2022/06/04 04:15:26;;;;;;;20.10;11.15;;;9.60;99.90;;;;;;4977427;28;20097;-75
2022/06/04 04:17:52;;;;;;;15.45;8.93;;;9.70;99.90;;;;;;4994848;28;20042;-75
2022/06/04 04:20:29;;;;;;;18.02;9.85;;;9.60;99.90;;;;;;4961750;28;20434;-75
2022/06/04 04:22:57;;;;;;;16.95;10.40;;;9.70;99.90;;;;;;4975928;28;20085;-74
2022/06/04 04:25:26;;;;;;;17.17;10.18;;;9.70;99.90;;;;;;4973679;28;20037;-75
2022/06/04 04:27:53;;;;;;;17.80;10.00;;;9.70;99.90;;;;;;4971263;28;20034;-75
2022/06/04 04:30:23;;;;;;;15.40;10.05;;;9.80;99.90;;;;;;4974408;28;20038;-75
2022/06/04 04:32:49;;;;;;;17.80;10.45;;;9.80;99.90;;;;;;4988194;28;20527;-75
2022/06/04 04:35:20;;;;;;;17.15;9.27;;;9.80;99.90;;;;;;4974011;28;20116;-75
2022/06/04 04:37:46;;;;;;;17.98;10.68;;;9.90;99.90;;;;;;4989729;28;20462;-75
2022/06/04 04:40:15;;;;;;;16.92;10.30;;;9.90;99.90;;;;;;4972959;28;20581;-75
2022/06/04 04:42:41;;;;;;;16.83;9.50;;;9.90;99.90;;;;;;4989802;28;20067;-75
2022/06/04 04:45:08;;;;;;;17.83;10.38;;;10.00;99.90;;;;;;4973386;28;20084;-75
2022/06/04 04:47:39;;;;;;;21.15;10.77;;;10.00;99.90;;;;;;4988198;28;20120;-75
2022/06/04 04:50:10;;;;;;;16.90;9.43;;;10.00;99.90;;;;;;4990326;28;20069;-75
2022/06/04 04:52:36;;;;;;;15.43;9.48;;;10.10;99.90;;;;;;4975768;28;20112;-75
2022/06/04 04:55:02;;;;;;;15.32;9.00;;;10.10;99.90;;;;;;4991076;28;20466;-72
2022/06/04 04:57:28;;;;;;;15.25;9.38;;;10.20;99.90;;;;;;4972101;28;20037;-73
2022/06/04 04:59:54;;;;;;;13.07;8.85;;;10.20;99.90;;;;;;4974702;28;20377;-74
2022/06/04 05:02:20;;;;;;;17.80;9.52;;;10.20;99.90;;;;;;4987178;28;20056;-72
2022/06/04 05:04:46;;;;;;;17.13;9.25;;;10.30;99.90;;;;;;4973973;28;20038;-72
2022/06/04 05:07:12;;;;;;;17.10;8.93;;;10.30;99.90;;;;;;4973526;28;20030;-72
2022/06/04 05:09:39;;;;;;;16.65;9.00;;;10.30;99.90;;;;;;4990076;28;20121;-73
2022/06/04 05:12:09;;;;;;;17.67;8.95;;;10.40;99.90;;;;;;4973889;28;20038;-72
2022/06/04 05:14:36;;;;;;;15.43;9.45;;;10.50;99.90;;;;;;4989787;28;20537;-71
2022/06/04 05:17:03;;;;;;;16.67;8.77;;;10.50;99.90;;;;;;4990562;28;20494;-72
2022/06/04 05:19:29;;;;;;;14.88;8.70;;;10.60;99.90;;;;;;4991005;28;20121;-72
2022/06/04 05:21:55;;;;;;;15.63;9.43;;;10.60;99.90;;;;;;4990514;28;20128;-73
2022/06/04 05:24:28;;;;;;;15.38;9.05;;;10.70;99.90;;;;;;4973496;28;20372;-73
2022/06/04 05:26:57;;;;;;;15.27;8.43;;;10.80;99.90;;;;;;5006863;28;20107;-72
2022/06/04 05:29:24;;;;;;;15.38;8.07;;;10.80;99.90;;;;;;4986999;28;20038;-73
2022/06/04 05:31:52;;;;;;;12.57;7.82;;;10.90;99.90;;;;;;4989830;28;20088;-73
2022/06/04 05:34:18;;;;;;;17.08;8.23;;;11.00;99.90;;;;;;4972531;28;20044;-73
2022/06/04 05:36:47;;;;;;;16.50;8.52;;;11.10;99.90;;;;;;5001295;28;20394;-73
2022/06/04 05:39:14;;;;;;;15.65;8.52;;;11.20;99.90;;;;;;4973230;28;20045;-73
2022/06/04 05:41:42;;;;;;;12.70;8.43;;;11.20;99.90;;;;;;4965520;28;20049;-74
2022/06/04 05:44:08;;;;;;;12.77;8.35;;;11.30;99.90;;;;;;5004741;28;20053;-73
2022/06/04 05:46:34;;;;;;;12.40;7.72;;;11.30;99.90;;;;;;4958452;28;20112;-73
2022/06/04 05:49:00;;;;;;;13.27;8.10;;;11.40;99.90;;;;;;4971310;28;20364;-73
2022/06/04 05:51:29;;;;;;;12.35;7.72;;;11.50;99.90;;;;;;4957985;28;20052;-73
2022/06/04 05:53:56;;;;;;;12.43;7.90;;;11.50;99.90;;;;;;4988113;28;20239;-73
2022/06/04 05:56:26;;;;;;;10.90;7.47;;;11.60;99.90;;;;;;4988202;28;20053;-74
2022/06/04 05:58:55;;;;;;;10.98;8.00;;;11.70;99.90;;;;;;4972187;28;20041;-73
2022/06/04 06:01:22;;;;;;;12.32;7.30;;;11.70;99.90;;;;;;4973382;28;20037;-74
2022/06/04 06:03:48;;;;;;;10.85;7.57;;;11.80;99.90;;;;;;4989029;28;20034;-74
2022/06/04 06:06:25;;;;;;;12.32;7.72;;;11.90;99.90;;;;;;4972926;28;20076;-74
2022/06/04 06:08:55;;;;;;;11.18;7.53;;;12.00;99.90;;;;;;4971294;28;20476;-74
2022/06/04 06:11:22;;;;;;;18.77;7.70;;;12.10;99.90;;;;;;4989004;28;20376;-75
2022/06/04 06:13:49;;;;;;;11.77;7.72;;;12.20;99.90;;;;;;4986456;28;20042;-74
2022/06/04 06:16:22;;;;;;;11.95;7.38;;;12.30;99.90;;;;;;4971780;28;20125;-74
2022/06/04 06:18:48;;;;;;;11.55;7.38;;;12.30;99.90;;;;;;4983079;28;20033;-74
2022/06/04 06:21:20;;;;;;;8.73;6.97;;;12.40;99.90;;;;;;4988717;28;20073;-74
2022/06/04 06:23:47;;;;;;;15.32;7.38;;;12.40;99.90;;;;;;4987835;28;20400;-75
2022/06/04 06:26:21;;;;;;;9.55;6.82;;;12.50;99.90;;;;;;4972597;28;20053;-75
2022/06/04 06:28:47;;;;;;;9.25;7.65;;;12.50;99.90;;;;;;4987242;28;20109;-74
2022/06/04 06:31:19;;;;;;;10.90;7.07;;;12.60;99.90;;;;;;4990562;28;20521;-75
2022/06/04 06:33:45;;;;;;;10.98;6.63;;;12.70;99.90;;;;;;4989467;28;20034;-75
2022/06/04 06:36:14;;;;;;;10.25;6.47;;;12.80;99.90;;;;;;4953156;28;20069;-75
2022/06/04 06:38:40;;;;;;;8.60;6.60;;;12.90;99.90;;;;;;4988253;28;20045;-74
2022/06/04 06:41:07;;;;;;;8.77;5.93;;;12.90;99.90;;;;;;4970302;28;20057;-74
2022/06/04 06:43:39;;;;;;;8.32;6.72;;;13.00;99.90;;;;;;4970761;28;20099;-74
2022/06/04 06:46:10;;;;;;;9.38;6.68;;;13.10;99.90;;;;;;4986605;28;20124;-74
2022/06/04 06:48:40;;;;;;;8.93;6.40;;;13.10;99.90;;;;;;4967913;28;20045;-75
2022/06/04 06:51:15;;;;;;;12.10;6.75;;;13.30;99.90;;;;;;4971975;28;20096;-76
2022/06/04 06:53:41;;;;;;;11.85;6.20;;;13.30;99.90;;;;;;4972311;28;20483;-75
2022/06/04 06:56:18;;;;;;;9.18;6.53;;;13.40;99.90;;;;;;4970931;28;20049;-75
2022/06/04 06:58:45;;;;;;;10.43;6.25;;;13.60;99.90;;;;;;4986921;28;20461;-75
2022/06/04 07:01:12;;;;;;;9.88;6.43;;;13.70;99.90;;;;;;4988240;28;20049;-74
2022/06/04 07:03:42;;;;;;;12.80;6.53;;;13.80;99.90;;;;;;4988466;28;20095;-75
2022/06/04 07:06:10;;;;;;;9.52;6.30;;;14.00;99.90;;;;;;4987772;28;20163;-75
2022/06/04 07:08:37;;;;;;;12.07;6.10;;;14.10;99.90;;;;;;4986891;28;20122;-75
2022/06/04 07:11:04;;;;;;;10.93;6.45;;;14.30;99.90;;;;;;4986969;28;20040;-75
2022/06/04 07:13:30;;;;;;;9.45;6.35;;;14.40;99.90;;;;;;4971207;28;20034;-75
2022/06/04 07:15:56;;;;;;;9.73;5.78;;;14.50;99.90;;;;;;4968977;28;20076;-75
2022/06/04 07:18:23;;;;;;;8.13;6.18;;;14.50;99.90;;;;;;4991974;28;20538;-75
2022/06/04 07:20:49;;;;;;;8.50;5.90;;;14.60;99.90;;;;;;4991440;28;20346;-75
2022/06/04 07:23:16;;;;;;;9.45;6.32;;;14.70;99.90;;;;;;4991615;28;20037;-75
2022/06/04 07:25:44;;;;;;;10.80;6.15;;;14.80;99.90;;;;;;4975674;28;20045;-75
2022/06/04 07:28:12;;;;;;;8.70;6.03;;;14.80;99.90;;;;;;4974885;28;20041;-76
2022/06/04 07:30:38;;;;;;;7.72;5.15;;;14.90;99.90;;;;;;4989109;28;20180;-75
2022/06/04 07:33:04;;;;;;;7.28;5.35;;;15.00;99.90;;;;;;4992143;28;20030;-75
2022/06/04 07:35:30;;;;;;;9.85;5.90;;;15.10;99.90;;;;;;4976309;28;20045;-75
2022/06/04 07:37:56;;;;;;;8.43;5.22;;;15.20;99.90;;;;;;4992681;28;20350;-75
2022/06/04 07:40:22;;;;;;;10.65;5.68;;;15.30;99.90;;;;;;4973142;28;20062;-75
2022/06/04 07:42:48;;;;;;;9.13;6.07;;;15.40;99.90;;;;;;4991643;28;20107;-76
2022/06/04 07:45:14;;;;;;;8.13;5.55;;;15.50;99.90;;;;;;4975018;28;20033;-75
2022/06/04 07:47:41;;;;;;;8.85;5.35;;;15.60;99.90;;;;;;4974699;28;20037;-75
2022/06/04 07:50:11;;;;;;;7.60;5.38;;;15.70;99.90;;;;;;4992293;28;20487;-75
2022/06/04 07:52:37;;;;;;;7.40;5.90;;;15.80;99.90;;;;;;4976004;28;20045;-76
2022/06/04 07:55:07;;;;;;;8.48;5.30;;;15.90;99.90;;;;;;4992389;28;20037;-75
2022/06/04 07:57:34;;;;;;;7.60;5.57;;;16.10;99.90;;;;;;4974991;28;20145;-76
2022/06/04 08:00:01;;;;;;;7.15;5.40;;;16.10;99.90;;;;;;4976303;28;20568;-75
2022/06/04 08:02:27;;;;;;;8.45;5.60;;;16.30;99.90;;;;;;4986132;28;20109;-75
2022/06/04 08:04:54;;;;;;;9.20;4.90;;;16.40;99.90;;;;;;4990194;28;20041;-75
2022/06/04 08:07:21;;;;;;;5.68;4.82;;;16.60;99.90;;;;;;4991801;28;20131;-76
2022/06/04 08:09:48;;;;;;;6.28;4.47;;;16.60;99.90;;;;;;4960917;28;20618;-76
2022/06/04 08:12:15;;;;;;;8.15;4.43;;;16.80;99.90;;;;;;4993776;28;20038;-76
2022/06/04 08:14:42;;;;;;;7.53;5.25;;;16.80;99.90;;;;;;4975916;28;20034;-77
2022/06/04 08:17:09;;;;;;;7.03;5.10;;;16.90;99.90;;;;;;4975972;28;20042;-75
2022/06/04 08:19:35;;;;;;;9.27;5.22;;;17.00;99.90;;;;;;4976465;28;20251;-76
2022/06/04 08:22:01;;;;;;;9.20;4.75;;;17.10;99.90;;;;;;4992363;28;20038;-75
2022/06/04 08:24:27;;;;;;;8.65;5.35;;;17.20;99.90;;;;;;4975061;28;20038;-77
2022/06/04 08:26:58;;;;;;;6.57;5.25;;;17.30;99.90;;;;;;4990208;28;20123;-75
2022/06/04 08:29:26;;;;;;;7.68;5.30;;;17.40;99.90;;;;;;4974629;28;20042;-75
2022/06/04 08:31:52;;;;;;;9.27;5.15;;;17.50;99.90;;;;;;4989923;28;20124;-75
2022/06/04 08:34:18;;;;;;;7.20;4.82;;;17.70;99.90;;;;;;4993100;28;20034;-75
2022/06/04 08:36:44;;;;;;;6.50;4.90;;;17.80;99.90;;;;;;4972038;28;20072;-76
2022/06/04 08:39:10;;;;;;;7.93;5.18;;;17.70;99.90;;;;;;4971564;28;20169;-76
2022/06/04 08:41:51;;;;;;;7.03;5.18;;;17.80;99.90;;;;;;4970770;28;20134;-77
2022/06/04 08:44:27;;;;;;;44.78;14.88;;;17.80;99.90;;;;;;4990273;28;20049;-78
2022/06/04 08:46:56;;;;;;;9.15;5.68;;;17.70;99.90;;;;;;4990408;28;20534;-78
2022/06/04 08:49:32;;;;;;;7.97;5.28;;;17.70;99.90;;;;;;4975936;28;20065;-76
2022/06/04 08:52:08;;;;;;;7.18;4.78;;;17.80;99.90;;;;;;4990421;28;20033;-77
2022/06/04 08:57:33;;;;;;;6.85;4.50;;;17.80;99.90;;;;;;4969105;28;20519;-75
2022/06/04 09:00:07;;;;;;;7.45;5.03;;;18.00;99.90;;;;;;4958150;28;20054;-75
2022/06/04 09:02:44;;;;;;;6.63;5.20;;;18.10;99.90;;;;;;4972944;28;20046;-74
2022/06/04 09:05:19;;;;;;;7.10;4.53;;;18.30;99.90;;;;;;5002836;28;20126;-76
2022/06/04 09:07:50;;;;;;;5.93;4.85;;;18.50;99.90;;;;;;4987399;28;20104;-75
2022/06/04 09:10:16;;;;;;;5.97;4.05;;;18.40;99.90;;;;;;4988537;28;20368;-75
2022/06/04 09:12:51;;;;;;;7.15;4.20;;;18.50;99.90;;;;;;4992203;28;20038;-74
2022/06/04 09:15:27;;;;;;;7.25;4.90;;;18.50;99.90;;;;;;4990608;28;20061;-75
2022/06/04 09:17:56;;;;;;;5.55;4.38;;;18.50;99.90;;;;;;4989410;28;20042;-75
2022/06/04 09:20:27;;;;;;;6.97;4.25;;;18.60;99.90;;;;;;4975307;28;20569;-75
2022/06/04 09:23:11;;;;;;;7.87;4.63;;;18.60;99.90;;;;;;4983395;28;20061;-74
2022/06/04 09:25:45;;;;;;;6.80;4.72;;;18.80;99.90;;;;;;5000305;28;20077;-75
2022/06/04 09:28:13;;;;;;;7.00;4.97;;;19.10;99.90;;;;;;4980272;28;20065;-75
2022/06/04 09:31:04;;;;;;;5.60;4.10;;;19.20;99.90;;;;;;4976016;28;20040;-75
2022/06/04 09:33:56;;;;;;;5.60;4.35;;;19.40;99.90;;;;;;4979604;28;20066;-75
2022/06/04 09:36:28;;;;;;;10.63;4.53;;;19.50;99.40;;;;;;4974096;28;20048;-75
2022/06/04 09:38:59;;;;;;;6.20;4.53;;;19.60;99.30;;;;;;4986588;28;20044;-75
2022/06/04 09:41:27;;;;;;;5.75;4.35;;;19.60;99.60;;;;;;4992581;28;20503;-74
2022/06/04 09:44:20;;;;;;;5.13;4.28;;;19.80;99.40;;;;;;4974277;28;20106;-77
2022/06/04 09:46:51;;;;;;;7.15;4.78;;;19.90;98.10;;;;;;4984466;28;20058;-75
2022/06/04 09:49:38;;;;;;;7.93;4.80;;;19.90;98.50;;;;;;4977861;28;20271;-75
2022/06/04 09:52:38;;;;;;;5.95;4.78;;;19.70;98.40;;;;;;4980546;28;20033;-75
2022/06/04 09:55:25;;;;;;;5.50;4.50;;;19.90;98.80;;;;;;4974307;28;20038;-75
2022/06/04 09:58:19;;;;;;;6.15;4.57;;;20.00;98.70;;;;;;4982852;28;20038;-75
2022/06/04 10:01:00;;;;;;;6.20;4.38;;;20.10;98.00;;;;;;4995463;28;20763;-75
2022/06/04 10:03:28;;;;;;;7.63;5.22;;;20.20;98.20;;;;;;5001624;28;20077;-75
2022/06/04 10:06:00;;;;;;;6.10;4.18;;;20.30;98.00;;;;;;4986310;28;20073;-74
2022/06/04 10:08:27;;;;;;;5.10;4.03;;;20.50;98.20;;;;;;4989181;28;20034;-74
2022/06/04 10:11:04;;;;;;;5.80;4.47;;;20.60;97.70;;;;;;4968194;28;20041;-75
2022/06/04 10:13:48;;;;;;;7.38;4.35;;;20.80;97.70;;;;;;4979263;28;20578;-75
2022/06/04 10:16:28;;;;;;;6.10;4.28;;;20.90;97.20;;;;;;4981664;28;20046;-75
2022/06/04 10:19:02;;;;;;;5.13;4.30;;;21.10;97.60;;;;;;4984887;28;20060;-74
2022/06/04 10:21:36;;;;;;;8.75;4.80;;;21.10;96.50;;;;;;4970492;28;20038;-74
2022/06/04 10:24:22;;;;;;;9.80;5.20;;;21.30;96.80;;;;;;4987255;28;20234;-74
2022/06/04 10:27:04;;;;;;;6.35;4.45;;;21.40;97.50;;;;;;4985052;28;20078;-76
2022/06/04 10:29:43;;;;;;;4.63;3.85;;;21.60;96.70;;;;;;4964350;28;20549;-77
2022/06/04 10:32:51;;;;;;;6.97;4.35;;;21.80;96.20;;;;;;4973456;28;20072;-77
2022/06/04 10:35:30;;;;;;;6.72;4.75;;;21.90;96.40;;;;;;4984554;28;20407;-76
2022/06/04 10:38:24;;;;;;;5.80;4.10;;;22.00;95.70;;;;;;4985867;28;20047;-75
2022/06/04 10:40:50;;;;;;;5.03;3.80;;;21.90;94.20;;;;;;4987789;28;20050;-77
2022/06/04 10:43:39;;;;;;;5.72;4.40;;;21.80;95.50;;;;;;4981236;28;20112;-77
2022/06/04 10:46:08;;;;;;;6.32;4.55;;;21.70;94.30;;;;;;5004999;28;20038;-75
2022/06/04 10:48:56;;;;;;;7.88;4.00;;;21.70;94.90;;;;;;4967791;28;20029;-77
2022/06/04 10:51:44;;;;;;;6.93;4.88;;;21.70;94.60;;;;;;4973056;28;20136;-73
2022/06/04 10:54:51;;;;;;;6.90;4.75;;;21.60;94.90;;;;;;4972200;28;20141;-74
2022/06/04 10:57:39;;;;;;;8.13;4.80;;;21.70;95.70;;;;;;4925410;29;20613;-75
2022/06/04 11:00:14;;;;;;;7.15;4.72;;;21.80;94.60;;;;;;4987341;28;20058;-72
2022/06/04 11:03:31;;;;;;;6.57;5.20;;;21.70;95.40;;;;;;4985158;28;20030;-73
2022/06/04 11:06:04;;;;;;;9.38;4.60;;;22.10;96.10;;;;;;4893794;29;20047;-74
2022/06/04 11:08:41;;;;;;;5.95;4.55;;;22.30;95.10;;;;;;4972216;28;20408;-73
2022/06/04 11:11:13;;;;;;;5.03;4.15;;;22.30;94.70;;;;;;4969465;28;20121;-74
2022/06/04 11:13:48;;;;;;;6.53;3.90;;;22.20;93.60;;;;;;4996644;28;20044;-77
2022/06/04 11:16:27;;;;;;;5.20;4.00;;;22.20;93.30;;;;;;4980573;28;20050;-76
2022/06/04 11:19:03;;;;;;;5.32;4.00;;;22.10;93.60;;;;;;4999221;28;20495;-75
2022/06/04 11:21:50;;;;;;;7.22;3.90;;;22.10;93.60;;;;;;4984178;28;20045;-74
2022/06/04 11:24:19;;;;;;;7.00;4.32;;;22.00;92.80;;;;;;4969434;28;20057;-75
2022/06/04 11:27:11;;;;;;;4.80;3.60;;;22.00;92.90;;;;;;4970182;28;20376;-75
2022/06/04 11:29:38;;;;;;;4.68;3.38;;;22.00;92.00;;;;;;4970761;28;20030;-75
2022/06/04 11:32:30;;;;;;;4.30;3.42;;;22.10;92.00;;;;;;4969969;28;20045;-76
2022/06/04 11:35:01;;;;;;;5.97;3.80;;;22.30;93.10;;;;;;4976322;28;20040;-76
2022/06/04 11:37:36;;;;;;;6.45;3.42;;;22.40;92.50;;;;;;4978970;28;20037;-76
2022/06/04 11:40:11;;;;;;;4.85;3.63;;;22.40;91.90;;;;;;4979706;28;20105;-77
2022/06/04 11:42:54;;;;;;;5.80;3.72;;;22.40;92.10;;;;;;4984610;28;20049;-75
2022/06/04 11:45:44;;;;;;;3.90;3.30;;;22.40;91.30;;;;;;4983862;28;20042;-76
2022/06/04 11:48:37;;;;;;;3.40;2.90;;;22.40;91.50;;;;;;4970729;28;20035;-76
2022/06/04 11:51:31;;;;;;;5.28;3.35;;;22.40;91.50;;;;;;4983385;28;20046;-76
2022/06/04 11:54:21;;;;;;;4.38;2.85;;;22.50;91.80;;;;;;4970650;28;20495;-75
2022/06/04 11:57:02;;;;;;;6.18;3.00;;;22.70;91.10;;;;;;4981208;28;20072;-76
2022/06/04 11:59:49;;;;;;;7.55;3.40;;;22.70;91.00;;;;;;4979900;28;20049;-78
2022/06/04 12:02:24;;;;;;;4.13;3.30;;;22.80;90.20;;;;;;4979856;28;20061;-77
2022/06/04 12:05:03;;;;;;;4.88;3.10;;;22.90;91.20;;;;;;4985748;28;20399;-74
2022/06/04 12:07:53;;;;;;;4.70;3.38;;;22.90;91.40;;;;;;4969612;28;20111;-73
2022/06/04 12:10:35;;;;;;;5.57;3.47;;;23.00;90.20;;;;;;4969856;28;20042;-76
2022/06/04 12:13:03;;;;;;;5.15;3.38;;;23.10;91.10;;;;;;4985026;28;20558;-76
2022/06/04 12:16:20;;;;;;;4.70;3.22;;;23.20;90.30;;;;;;4985760;28;20084;-78
2022/06/04 12:19:04;;;;;;;4.60;3.20;;;23.20;90.00;;;;;;4982920;28;20041;-77
2022/06/04 12:24:22;;;;;;;5.07;3.15;;;23.20;90.20;;;;;;5006435;28;20046;-76
2022/06/04 12:26:49;;;;;;;6.28;2.85;;;23.20;89.20;;;;;;4988442;28;20129;-78
2022/06/04 12:29:32;;;;;;;5.03;2.88;;;22.90;88.20;;;;;;4974544;28;20042;-78
2022/06/04 12:32:21;;;;;;;5.80;3.40;;;22.80;88.40;;;;;;4992541;28;20486;-78
2022/06/04 12:34:50;;;;;;;7.97;3.42;;;22.60;89.30;;;;;;4975954;28;20034;-78
2022/06/04 12:37:29;;;;;;;5.38;3.88;;;22.60;89.70;;;;;;4988753;28;20566;-76
2022/06/04 12:39:56;;;;;;;5.65;3.15;;;22.50;90.00;;;;;;4981795;28;20081;-78
2022/06/04 12:42:27;;;;;;;3.92;3.28;;;22.40;90.40;;;;;;4997872;28;20088;-76
2022/06/04 12:44:56;;;;;;;3.92;3.00;;;22.40;90.80;;;;;;4989562;28;20491;-77
2022/06/04 12:47:28;;;;;;;4.30;3.10;;;22.40;90.50;;;;;;5000832;28;20157;-77
2022/06/04 12:50:18;;;;;;;5.82;3.45;;;22.30;90.50;;;;;;4984612;28;20499;-77
2022/06/04 12:53:07;;;;;;;5.38;3.47;;;22.30;90.70;;;;;;4976676;28;20037;-77
2022/06/04 12:55:44;;;;;;;6.15;3.40;;;22.40;90.80;;;;;;4974106;28;20077;-77
2022/06/04 12:58:48;;;;;;;3.20;2.90;;;22.40;90.80;;;;;;4971582;28;20042;-76
2022/06/04 13:01:18;;;;;;;3.47;3.17;;;22.60;90.90;;;;;;5003800;28;20553;-77
2022/06/04 13:03:45;;;;;;;3.88;2.97;;;22.80;90.90;;;;;;4974396;28;20042;-77
2022/06/04 13:06:34;;;;;;;4.90;3.38;;;22.90;90.80;;;;;;4983352;28;20069;-76
2022/06/04 13:09:19;;;;;;;5.03;3.30;;;23.10;90.40;;;;;;4986569;28;20041;-78
2022/06/04 13:12:20;;;;;;;6.35;3.30;;;23.10;90.80;;;;;;4985992;28;20112;-79
2022/06/04 13:15:07;;;;;;;5.18;3.30;;;23.10;90.30;;;;;;4890308;29;20480;-79
2022/06/04 13:17:43;;;;;;;5.85;3.92;;;23.00;90.10;;;;;;4983603;28;20084;-77
2022/06/04 13:20:09;;;;;;;3.90;3.10;;;22.80;90.20;;;;;;4988840;28;20069;-81
2022/06/04 13:22:42;;;;;;;5.82;3.30;;;22.90;90.70;;;;;;4989258;28;20306;-78
2022/06/04 13:25:14;;;;;;;4.57;2.83;;;22.90;90.70;;;;;;4971051;28;20116;-77
2022/06/04 13:27:55;;;;;;;4.10;2.90;;;23.10;90.50;;;;;;4987105;28;20523;-79